sensor_id;sensor_type;location;lat;lon;timestamp;pressure;altitude;pressure_sealevel;temperature;humidity
32747;BME280;19118;50.860;13.662;2022-11-15T00:04:24;97053.50;;;0.95;100.00
32747;BME280;19118;50.860;13.662;2022-11-15T00:09:43;97061.16;;;1.06;100.00
32747;BME280;19118;50.860;13.662;2022-11-15T00:15:02;97066.34;;;0.86;100.00
32747;BME280;19118;50.860;13.662;2022-11-15T00:20:22;97037.16;;;1.12;100.00
32747;BME280;19118;50.860;13.662;2022-11-15T00:25:40;97045.13;;;1.39;100.00
32747;BME280;19118;50.860;13.662;2022-11-15T00:31:04;97046.19;;;1.46;100.00
32747;BME280;19118;50.860;13.662;2022-11-15T00:36:23;97052.22;;;1.47;100.00
32747;BME280;19118;50.860;13.662;2022-11-15T00:41:42;97048.09;;;1.64;100.00
32747;BME280;19118;50.860;13.662;2022-11-15T00:47:01;97049.66;;;1.94;100.00
32747;BME280;19118;50.860;13.662;2022-11-15T00:52:20;97042.97;;;2.46;100.00
32747;BME280;19118;50.860;13.662;2022-11-15T00:57:39;97042.22;;;2.99;100.00
32747;BME280;19118;50.860;13.662;2022-11-15T01:02:59;97041.75;;;3.04;100.00
32747;BME280;19118;50.860;13.662;2022-11-15T01:08:18;97032.13;;;3.04;100.00
32747;BME280;19118;50.860;13.662;2022-11-15T01:13:38;97027.59;;;3.06;100.00
32747;BME280;19118;50.860;13.662;2022-11-15T01:18:57;97024.06;;;3.15;100.00
32747;BME280;19118;50.860;13.662;2022-11-15T01:24:16;97023.22;;;3.33;100.00
32747;BME280;19118;50.860;13.662;2022-11-15T01:29:35;97023.75;;;3.62;100.00
32747;BME280;19118;50.860;13.662;2022-11-15T01:34:54;97027.41;;;3.69;100.00
32747;BME280;19118;50.860;13.662;2022-11-15T01:40:14;97011.66;;;3.61;100.00
32747;BME280;19118;50.860;13.662;2022-11-15T01:45:33;97004.94;;;3.33;100.00
32747;BME280;19118;50.860;13.662;2022-11-15T01:50:52;96996.91;;;3.08;100.00
32747;BME280;19118;50.860;13.662;2022-11-15T01:56:15;96989.47;;;2.96;100.00
32747;BME280;19118;50.860;13.662;2022-11-15T02:01:35;96982.94;;;2.82;100.00
32747;BME280;19118;50.860;13.662;2022-11-15T02:06:54;96981.69;;;2.68;100.00
32747;BME280;19118;50.860;13.662;2022-11-15T02:12:15;96978.69;;;2.81;100.00
32747;BME280;19118;50.860;13.662;2022-11-15T02:23:11;96959.59;;;2.80;100.00
32747;BME280;19118;50.860;13.662;2022-11-15T02:28:56;96960.66;;;2.70;100.00
32747;BME280;19118;50.860;13.662;2022-11-15T02:34:32;96954.69;;;2.77;100.00
32747;BME280;19118;50.860;13.662;2022-11-15T02:40:03;96939.53;;;2.81;100.00
32747;BME280;19118;50.860;13.662;2022-11-15T02:45:44;96931.66;;;2.73;100.00
32747;BME280;19118;50.860;13.662;2022-11-15T02:51:06;96922.22;;;2.80;100.00
32747;BME280;19118;50.860;13.662;2022-11-15T02:56:25;96924.59;;;2.91;100.00
32747;BME280;19118;50.860;13.662;2022-11-15T03:01:51;96919.97;;;3.03;100.00
32747;BME280;19118;50.860;13.662;2022-11-15T03:07:19;96915.31;;;3.14;100.00
32747;BME280;19118;50.860;13.662;2022-11-15T03:12:46;96920.44;;;3.24;100.00
32747;BME280;19118;50.860;13.662;2022-11-15T03:18:19;96917.38;;;3.29;100.00
32747;BME280;19118;50.860;13.662;2022-11-15T03:23:40;96916.94;;;3.15;100.00
32747;BME280;19118;50.860;13.662;2022-11-15T03:29:16;96910.47;;;2.76;100.00
32747;BME280;19118;50.860;13.662;2022-11-15T03:40:06;96896.00;;;2.28;100.00
32747;BME280;19118;50.860;13.662;2022-11-15T03:45:29;96888.47;;;2.25;100.00
32747;BME280;19118;50.860;13.662;2022-11-15T03:50:52;96894.94;;;2.21;100.00
32747;BME280;19118;50.860;13.662;2022-11-15T03:56:12;96887.63;;;2.07;100.00
32747;BME280;19118;50.860;13.662;2022-11-15T04:01:31;96882.63;;;1.95;100.00
32747;BME280;19118;50.860;13.662;2022-11-15T04:06:50;96885.50;;;1.92;100.00
32747;BME280;19118;50.860;13.662;2022-11-15T04:12:09;96891.22;;;1.78;100.00
32747;BME280;19118;50.860;13.662;2022-11-15T04:17:28;96891.22;;;1.78;100.00
32747;BME280;19118;50.860;13.662;2022-11-15T04:22:47;96885.69;;;1.63;100.00
32747;BME280;19118;50.860;13.662;2022-11-15T04:28:25;96878.16;;;1.60;100.00
32747;BME280;19118;50.860;13.662;2022-11-15T04:33:44;96877.47;;;1.58;100.00
32747;BME280;19118;50.860;13.662;2022-11-15T04:39:03;96874.84;;;1.58;100.00
32747;BME280;19118;50.860;13.662;2022-11-15T04:44:22;96866.78;;;1.61;100.00
32747;BME280;19118;50.860;13.662;2022-11-15T04:49:41;96880.13;;;1.49;100.00
32747;BME280;19118;50.860;13.662;2022-11-15T04:55:00;96874.81;;;1.40;100.00
32747;BME280;19118;50.860;13.662;2022-11-15T05:00:19;96869.31;;;1.43;100.00
32747;BME280;19118;50.860;13.662;2022-11-15T05:05:38;96854.50;;;1.44;100.00
32747;BME280;19118;50.860;13.662;2022-11-15T05:10:57;96859.09;;;1.60;100.00
32747;BME280;19118;50.860;13.662;2022-11-15T05:16:16;96864.00;;;1.63;100.00
32747;BME280;19118;50.860;13.662;2022-11-15T05:21:35;96861.25;;;1.64;100.00
32747;BME280;19118;50.860;13.662;2022-11-15T05:26:54;96850.88;;;1.82;100.00
32747;BME280;19118;50.860;13.662;2022-11-15T05:32:13;96855.41;;;1.80;100.00
32747;BME280;19118;50.860;13.662;2022-11-15T05:37:32;96858.84;;;1.98;100.00
32747;BME280;19118;50.860;13.662;2022-11-15T05:42:51;96856.19;;;2.08;100.00
32747;BME280;19118;50.860;13.662;2022-11-15T05:48:10;96860.06;;;2.22;100.00
32747;BME280;19118;50.860;13.662;2022-11-15T05:53:30;96855.00;;;2.38;100.00
32747;BME280;19118;50.860;13.662;2022-11-15T05:58:49;96857.91;;;2.53;100.00
32747;BME280;19118;50.860;13.662;2022-11-15T06:04:08;96863.31;;;2.59;100.00
32747;BME280;19118;50.860;13.662;2022-11-15T06:09:27;96860.81;;;2.50;100.00
32747;BME280;19118;50.860;13.662;2022-11-15T06:14:46;96863.28;;;2.33;100.00
32747;BME280;19118;50.860;13.662;2022-11-15T06:20:05;96861.13;;;2.29;100.00
32747;BME280;19118;50.860;13.662;2022-11-15T06:25:25;96876.03;;;2.19;100.00
32747;BME280;19118;50.860;13.662;2022-11-15T06:30:44;96874.66;;;2.15;100.00
32747;BME280;19118;50.860;13.662;2022-11-15T06:36:04;96864.44;;;2.03;100.00
32747;BME280;19118;50.860;13.662;2022-11-15T06:41:24;96867.34;;;2.00;100.00
32747;BME280;19118;50.860;13.662;2022-11-15T06:46:43;96864.59;;;2.02;100.00
32747;BME280;19118;50.860;13.662;2022-11-15T06:52:02;96872.97;;;2.06;100.00
32747;BME280;19118;50.860;13.662;2022-11-15T06:57:21;96874.59;;;2.07;100.00
32747;BME280;19118;50.860;13.662;2022-11-15T07:02:40;96870.06;;;2.09;100.00
32747;BME280;19118;50.860;13.662;2022-11-15T07:08:00;96867.53;;;2.17;100.00
32747;BME280;19118;50.860;13.662;2022-11-15T07:13:19;96875.25;;;2.26;100.00
32747;BME280;19118;50.860;13.662;2022-11-15T07:18:39;96872.88;;;2.33;100.00
32747;BME280;19118;50.860;13.662;2022-11-15T07:23:58;96862.69;;;2.40;100.00
32747;BME280;19118;50.860;13.662;2022-11-15T07:29:17;96864.91;;;2.52;100.00
32747;BME280;19118;50.860;13.662;2022-11-15T07:34:36;96867.22;;;2.73;100.00
32747;BME280;19118;50.860;13.662;2022-11-15T07:39:55;96874.66;;;2.94;100.00
32747;BME280;19118;50.860;13.662;2022-11-15T07:45:15;96872.19;;;3.10;100.00
32747;BME280;19118;50.860;13.662;2022-11-15T07:50:34;96874.06;;;3.26;100.00
32747;BME280;19118;50.860;13.662;2022-11-15T07:55:53;96880.59;;;3.56;100.00
32747;BME280;19118;50.860;13.662;2022-11-15T08:01:12;96872.22;;;3.87;100.00
32747;BME280;19118;50.860;13.662;2022-11-15T08:06:32;96873.28;;;4.10;100.00
32747;BME280;19118;50.860;13.662;2022-11-15T08:11:51;96868.06;;;4.34;100.00
32747;BME280;19118;50.860;13.662;2022-11-15T08:17:10;96860.88;;;4.53;100.00
32747;BME280;19118;50.860;13.662;2022-11-15T08:22:28;96863.81;;;4.74;100.00
32747;BME280;19118;50.860;13.662;2022-11-15T08:27:51;96863.97;;;4.97;100.00
32747;BME280;19118;50.860;13.662;2022-11-15T08:33:12;96853.78;;;5.26;100.00
32747;BME280;19118;50.860;13.662;2022-11-15T08:38:31;96856.47;;;5.58;100.00
32747;BME280;19118;50.860;13.662;2022-11-15T08:43:51;96856.53;;;6.20;100.00
32747;BME280;19118;50.860;13.662;2022-11-15T08:49:10;96863.13;;;6.61;100.00
32747;BME280;19118;50.860;13.662;2022-11-15T08:54:29;96866.50;;;6.93;100.00
32747;BME280;19118;50.860;13.662;2022-11-15T08:59:48;96856.13;;;7.14;100.00
32747;BME280;19118;50.860;13.662;2022-11-15T09:05:07;96846.41;;;7.44;100.00
32747;BME280;19118;50.860;13.662;2022-11-15T09:10:26;96833.16;;;7.67;100.00
32747;BME280;19118;50.860;13.662;2022-11-15T09:15:45;96824.41;;;7.96;100.00
32747;BME280;19118;50.860;13.662;2022-11-15T09:21:04;96802.97;;;8.35;100.00
32747;BME280;19118;50.860;13.662;2022-11-15T09:26:23;96780.06;;;8.57;100.00
32747;BME280;19118;50.860;13.662;2022-11-15T09:31:42;96755.16;;;8.88;100.00
32747;BME280;19118;50.860;13.662;2022-11-15T09:37:01;96736.81;;;9.08;100.00
32747;BME280;19118;50.860;13.662;2022-11-15T09:42:44;96707.34;;;9.45;100.00
32747;BME280;19118;50.860;13.662;2022-11-15T09:53:47;96683.69;;;9.85;100.00
32747;BME280;19118;50.860;13.662;2022-11-15T10:03:58;96686.78;;;10.15;100.00
32747;BME280;19118;50.860;13.662;2022-11-15T10:09:22;96665.28;;;10.44;100.00
32747;BME280;19118;50.860;13.662;2022-11-15T10:14:25;96657.94;;;10.66;100.00
32747;BME280;19118;50.860;13.662;2022-11-15T10:24:46;96643.06;;;10.72;100.00
32747;BME280;19118;50.860;13.662;2022-11-15T10:29:49;96632.03;;;10.88;100.00
32747;BME280;19118;50.860;13.662;2022-11-15T10:34:50;96627.50;;;11.02;100.00
32747;BME280;19118;50.860;13.662;2022-11-15T10:45:27;96614.28;;;11.47;97.64
32747;BME280;19118;50.860;13.662;2022-11-15T10:50:32;96611.66;;;11.78;96.60
32747;BME280;19118;50.860;13.662;2022-11-15T10:55:33;96607.81;;;11.99;92.64
32747;BME280;19118;50.860;13.662;2022-11-15T11:00:37;96608.97;;;12.10;90.44
32747;BME280;19118;50.860;13.662;2022-11-15T11:05:41;96601.06;;;12.28;95.41
32747;BME280;19118;50.860;13.662;2022-11-15T11:10:55;96601.53;;;12.25;100.00
32747;BME280;19118;50.860;13.662;2022-11-15T11:21:11;96586.38;;;12.50;98.58
32747;BME280;19118;50.860;13.662;2022-11-15T11:26:19;96579.59;;;12.54;97.90
32747;BME280;19118;50.860;13.662;2022-11-15T11:31:29;96570.47;;;12.50;100.00
32747;BME280;19118;50.860;13.662;2022-11-15T11:36:50;96563.00;;;12.41;100.00
32747;BME280;19118;50.860;13.662;2022-11-15T11:52:23;96552.44;;;12.16;100.00
32747;BME280;19118;50.860;13.662;2022-11-15T11:57:39;96554.34;;;12.09;100.00
32747;BME280;19118;50.860;13.662;2022-11-15T12:08:30;96536.00;;;12.07;100.00
32747;BME280;19118;50.860;13.662;2022-11-15T12:13:33;96523.34;;;12.09;100.00
32747;BME280;19118;50.860;13.662;2022-11-15T12:18:37;96519.88;;;12.09;100.00
32747;BME280;19118;50.860;13.662;2022-11-15T12:23:43;96511.81;;;12.22;100.00
32747;BME280;19118;50.860;13.662;2022-11-15T12:28:55;96503.47;;;12.18;100.00
32747;BME280;19118;50.860;13.662;2022-11-15T12:33:58;96491.41;;;12.22;100.00
32747;BME280;19118;50.860;13.662;2022-11-15T12:39:06;96483.66;;;12.21;100.00
32747;BME280;19118;50.860;13.662;2022-11-15T13:04:53;96463.50;;;12.02;100.00
32747;BME280;19118;50.860;13.662;2022-11-15T13:09:55;96453.53;;;11.97;100.00
32747;BME280;19118;50.860;13.662;2022-11-15T13:15:00;96452.72;;;11.97;100.00
32747;BME280;19118;50.860;13.662;2022-11-15T13:25:30;96451.75;;;11.48;100.00
32747;BME280;19118;50.860;13.662;2022-11-15T13:30:33;96453.63;;;11.41;100.00
32747;BME280;19118;50.860;13.662;2022-11-15T13:35:41;96444.06;;;11.40;100.00
32747;BME280;19118;50.860;13.662;2022-11-15T13:40:42;96446.47;;;11.16;100.00
32747;BME280;19118;50.860;13.662;2022-11-15T13:45:42;96448.41;;;11.02;100.00
32747;BME280;19118;50.860;13.662;2022-11-15T13:50:44;96448.53;;;10.83;100.00
32747;BME280;19118;50.860;13.662;2022-11-15T13:55:44;96447.66;;;10.57;100.00
32747;BME280;19118;50.860;13.662;2022-11-15T14:00:45;96436.94;;;10.39;100.00
32747;BME280;19118;50.860;13.662;2022-11-15T14:06:07;96427.03;;;10.14;100.00
32747;BME280;19118;50.860;13.662;2022-11-15T14:11:16;96429.75;;;9.95;100.00
32747;BME280;19118;50.860;13.662;2022-11-15T14:16:20;96412.56;;;9.66;100.00
32747;BME280;19118;50.860;13.662;2022-11-15T14:21:21;96418.66;;;9.46;100.00
32747;BME280;19118;50.860;13.662;2022-11-15T14:26:27;96416.84;;;9.20;100.00
32747;BME280;19118;50.860;13.662;2022-11-15T14:31:28;96415.41;;;8.91;100.00
32747;BME280;19118;50.860;13.662;2022-11-15T14:36:28;96408.63;;;8.49;100.00
32747;BME280;19118;50.860;13.662;2022-11-15T14:41:29;96405.63;;;8.11;100.00
32747;BME280;19118;50.860;13.662;2022-11-15T14:46:32;96406.69;;;7.75;100.00
32747;BME280;19118;50.860;13.662;2022-11-15T14:51:33;96404.00;;;7.34;100.00
32747;BME280;19118;50.860;13.662;2022-11-15T14:56:33;96398.13;;;7.04;100.00
32747;BME280;19118;50.860;13.662;2022-11-15T15:01:34;96407.16;;;6.74;100.00
32747;BME280;19118;50.860;13.662;2022-11-15T15:06:34;96410.13;;;6.49;100.00
32747;BME280;19118;50.860;13.662;2022-11-15T15:11:34;96404.59;;;6.23;100.00
32747;BME280;19118;50.860;13.662;2022-11-15T15:16:35;96399.66;;;5.98;100.00
32747;BME280;19118;50.860;13.662;2022-11-15T15:21:35;96390.06;;;5.76;100.00
32747;BME280;19118;50.860;13.662;2022-11-15T15:26:36;96394.69;;;5.44;100.00
32747;BME280;19118;50.860;13.662;2022-11-15T15:31:38;96394.41;;;5.24;100.00
32747;BME280;19118;50.860;13.662;2022-11-15T15:36:38;96403.63;;;4.97;100.00
32747;BME280;19118;50.860;13.662;2022-11-15T15:41:38;96412.06;;;4.70;100.00
32747;BME280;19118;50.860;13.662;2022-11-15T15:46:39;96402.69;;;4.53;100.00
32747;BME280;19118;50.860;13.662;2022-11-15T15:51:39;96399.38;;;4.36;100.00
32747;BME280;19118;50.860;13.662;2022-11-15T15:56:40;96401.44;;;4.18;100.00
32747;BME280;19118;50.860;13.662;2022-11-15T16:01:40;96401.06;;;3.98;100.00
32747;BME280;19118;50.860;13.662;2022-11-15T16:06:41;96404.38;;;3.84;100.00
32747;BME280;19118;50.860;13.662;2022-11-15T16:11:45;96399.50;;;3.72;100.00
32747;BME280;19118;50.860;13.662;2022-11-15T16:16:46;96402.22;;;3.56;100.00
32747;BME280;19118;50.860;13.662;2022-11-15T16:21:46;96403.91;;;3.41;100.00
32747;BME280;19118;50.860;13.662;2022-11-15T16:26:47;96404.22;;;3.38;100.00
32747;BME280;19118;50.860;13.662;2022-11-15T16:31:48;96398.34;;;3.28;100.00
32747;BME280;19118;50.860;13.662;2022-11-15T16:36:49;96392.81;;;3.14;100.00
32747;BME280;19118;50.860;13.662;2022-11-15T16:41:51;96400.34;;;3.09;100.00
32747;BME280;19118;50.860;13.662;2022-11-15T16:46:52;96413.59;;;2.91;100.00
32747;BME280;19118;50.860;13.662;2022-11-15T16:51:52;96399.22;;;2.79;100.00
32747;BME280;19118;50.860;13.662;2022-11-15T16:56:52;96395.66;;;2.72;100.00
32747;BME280;19118;50.860;13.662;2022-11-15T17:01:53;96392.88;;;2.66;100.00
32747;BME280;19118;50.860;13.662;2022-11-15T17:06:53;96382.09;;;2.69;100.00
32747;BME280;19118;50.860;13.662;2022-11-15T17:11:54;96385.53;;;2.61;100.00
32747;BME280;19118;50.860;13.662;2022-11-15T17:16:54;96373.31;;;2.53;100.00
32747;BME280;19118;50.860;13.662;2022-11-15T17:21:54;96360.09;;;2.55;100.00
32747;BME280;19118;50.860;13.662;2022-11-15T17:26:55;96375.91;;;2.61;100.00
32747;BME280;19118;50.860;13.662;2022-11-15T17:31:55;96381.63;;;2.57;100.00
32747;BME280;19118;50.860;13.662;2022-11-15T17:36:56;96381.78;;;2.55;100.00
32747;BME280;19118;50.860;13.662;2022-11-15T17:41:56;96388.63;;;2.40;100.00
32747;BME280;19118;50.860;13.662;2022-11-15T17:46:57;96383.06;;;2.27;100.00
32747;BME280;19118;50.860;13.662;2022-11-15T17:51:57;96385.00;;;2.25;100.00
32747;BME280;19118;50.860;13.662;2022-11-15T17:56:58;96379.44;;;2.12;100.00
32747;BME280;19118;50.860;13.662;2022-11-15T18:01:58;96376.50;;;2.07;100.00
32747;BME280;19118;50.860;13.662;2022-11-15T18:06:58;96367.06;;;2.06;100.00
32747;BME280;19118;50.860;13.662;2022-11-15T18:11:59;96360.50;;;2.01;100.00
32747;BME280;19118;50.860;13.662;2022-11-15T18:16:59;96347.47;;;1.93;100.00
32747;BME280;19118;50.860;13.662;2022-11-15T18:22:00;96339.97;;;1.90;100.00
32747;BME280;19118;50.860;13.662;2022-11-15T18:27:02;96346.00;;;1.83;100.00
32747;BME280;19118;50.860;13.662;2022-11-15T18:32:06;96337.97;;;1.76;100.00
32747;BME280;19118;50.860;13.662;2022-11-15T18:37:11;96340.56;;;1.68;100.00
32747;BME280;19118;50.860;13.662;2022-11-15T18:42:12;96328.63;;;1.57;100.00
32747;BME280;19118;50.860;13.662;2022-11-15T18:47:12;96322.94;;;1.54;100.00
32747;BME280;19118;50.860;13.662;2022-11-15T18:52:12;96317.06;;;1.52;100.00
32747;BME280;19118;50.860;13.662;2022-11-15T18:57:13;96310.50;;;1.39;100.00
32747;BME280;19118;50.860;13.662;2022-11-15T19:02:13;96311.44;;;1.30;100.00
32747;BME280;19118;50.860;13.662;2022-11-15T19:07:14;96319.25;;;1.30;100.00
32747;BME280;19118;50.860;13.662;2022-11-15T19:12:14;96314.81;;;1.23;100.00
32747;BME280;19118;50.860;13.662;2022-11-15T19:17:14;96308.31;;;1.19;100.00
32747;BME280;19118;50.860;13.662;2022-11-15T19:22:15;96320.34;;;1.20;100.00
32747;BME280;19118;50.860;13.662;2022-11-15T19:27:15;96308.78;;;1.14;100.00
32747;BME280;19118;50.860;13.662;2022-11-15T19:32:15;96303.06;;;1.10;100.00
32747;BME280;19118;50.860;13.662;2022-11-15T19:37:16;96309.06;;;1.03;100.00
32747;BME280;19118;50.860;13.662;2022-11-15T19:42:16;96306.41;;;0.95;100.00
32747;BME280;19118;50.860;13.662;2022-11-15T19:47:17;96301.00;;;0.88;100.00
32747;BME280;19118;50.860;13.662;2022-11-15T19:52:17;96298.66;;;0.77;100.00
32747;BME280;19118;50.860;13.662;2022-11-15T19:57:19;96293.97;;;0.80;100.00
32747;BME280;19118;50.860;13.662;2022-11-15T20:02:20;96292.63;;;0.76;100.00
32747;BME280;19118;50.860;13.662;2022-11-15T20:07:21;96288.72;;;0.72;100.00
32747;BME280;19118;50.860;13.662;2022-11-15T20:12:21;96292.28;;;0.71;100.00
32747;BME280;19118;50.860;13.662;2022-11-15T20:17:21;96285.47;;;0.70;100.00
32747;BME280;19118;50.860;13.662;2022-11-15T20:22:23;96298.41;;;0.62;100.00
32747;BME280;19118;50.860;13.662;2022-11-15T20:27:24;96281.94;;;0.53;100.00
32747;BME280;19118;50.860;13.662;2022-11-15T20:32:25;96282.72;;;0.46;100.00
32747;BME280;19118;50.860;13.662;2022-11-15T20:37:26;96280.38;;;0.43;100.00
32747;BME280;19118;50.860;13.662;2022-11-15T20:42:27;96267.63;;;0.32;100.00
32747;BME280;19118;50.860;13.662;2022-11-15T20:47:29;96257.44;;;0.38;100.00
32747;BME280;19118;50.860;13.662;2022-11-15T20:52:30;96261.38;;;0.42;100.00
32747;BME280;19118;50.860;13.662;2022-11-15T20:57:31;96256.94;;;0.35;100.00
32747;BME280;19118;50.860;13.662;2022-11-15T21:02:31;96263.88;;;0.26;100.00
32747;BME280;19118;50.860;13.662;2022-11-15T21:07:32;96262.03;;;0.18;100.00
32747;BME280;19118;50.860;13.662;2022-11-15T21:12:32;96254.03;;;0.12;100.00
32747;BME280;19118;50.860;13.662;2022-11-15T21:17:33;96243.25;;;0.07;100.00
32747;BME280;19118;50.860;13.662;2022-11-15T21:22:34;96242.44;;;0.06;100.00
32747;BME280;19118;50.860;13.662;2022-11-15T21:27:34;96238.44;;;-0.06;100.00
32747;BME280;19118;50.860;13.662;2022-11-15T21:32:34;96234.81;;;-0.13;100.00
32747;BME280;19118;50.860;13.662;2022-11-15T21:37:36;96225.69;;;-0.17;100.00
32747;BME280;19118;50.860;13.662;2022-11-15T21:42:36;96236.38;;;-0.20;100.00
32747;BME280;19118;50.860;13.662;2022-11-15T21:47:37;96219.00;;;-0.38;100.00
32747;BME280;19118;50.860;13.662;2022-11-15T21:52:37;96219.47;;;-0.42;100.00
32747;BME280;19118;50.860;13.662;2022-11-15T21:57:37;96208.69;;;-0.47;100.00
32747;BME280;19118;50.860;13.662;2022-11-15T22:02:38;96196.84;;;-0.50;100.00
32747;BME280;19118;50.860;13.662;2022-11-15T22:07:38;96193.28;;;-0.49;100.00
32747;BME280;19118;50.860;13.662;2022-11-15T22:12:38;96199.13;;;-0.47;100.00
32747;BME280;19118;50.860;13.662;2022-11-15T22:17:39;96205.75;;;-0.52;100.00
32747;BME280;19118;50.860;13.662;2022-11-15T22:22:58;96206.88;;;-0.55;100.00
32747;BME280;19118;50.860;13.662;2022-11-15T22:27:59;96191.56;;;-0.58;100.00
32747;BME280;19118;50.860;13.662;2022-11-15T22:32:59;96198.47;;;-0.67;100.00
32747;BME280;19118;50.860;13.662;2022-11-15T22:37:59;96185.63;;;-0.68;100.00
32747;BME280;19118;50.860;13.662;2022-11-15T22:43:00;96173.34;;;-0.66;100.00
32747;BME280;19118;50.860;13.662;2022-11-15T22:48:01;96161.75;;;-0.54;100.00
32747;BME280;19118;50.860;13.662;2022-11-15T22:53:01;96147.34;;;-0.31;100.00
32747;BME280;19118;50.860;13.662;2022-11-15T22:58:02;96151.19;;;-0.35;100.00
32747;BME280;19118;50.860;13.662;2022-11-15T23:03:02;96148.88;;;0.06;100.00
32747;BME280;19118;50.860;13.662;2022-11-15T23:08:03;96136.94;;;0.21;100.00
32747;BME280;19118;50.860;13.662;2022-11-15T23:13:05;96135.69;;;0.34;100.00
32747;BME280;19118;50.860;13.662;2022-11-15T23:18:18;96125.50;;;0.40;100.00
32747;BME280;19118;50.860;13.662;2022-11-15T23:23:18;96123.38;;;0.44;100.00
32747;BME280;19118;50.860;13.662;2022-11-15T23:28:18;96118.22;;;0.52;100.00
32747;BME280;19118;50.860;13.662;2022-11-15T23:33:19;96112.19;;;0.51;100.00
32747;BME280;19118;50.860;13.662;2022-11-15T23:38:38;96111.41;;;0.51;100.00
32747;BME280;19118;50.860;13.662;2022-11-15T23:43:39;96118.16;;;0.36;100.00
32747;BME280;19118;50.860;13.662;2022-11-15T23:48:40;96106.81;;;0.45;100.00
32747;BME280;19118;50.860;13.662;2022-11-15T23:53:41;96108.53;;;0.70;100.00
32747;BME280;19118;50.860;13.662;2022-11-15T23:58:42;96104.94;;;0.63;100.00
